Terminal Aerodrome Forecast
Issued by NWS Charleston, WV

Current Version | Previous Version | Graphics & Text | Print | Product List | Glossary On
Versions: 1 2 3 4 5 6 7 8 9 10 11 12 13 14 15 16 17 18 19 20 21 22 23
000
FTUS41 KRLX 140500
TAFPKB
TAF
KPKB 140535Z 1406/1506 18012G22KT P6SM BKN200
     FM141500 20015G24KT P6SM OVC080
     FM141800 22014G21KT 4SM SHRA VCTS OVC040CB
     FM142000 21013G20KT 6SM SHRA OVC035
     FM150100 20009KT 6SM SHRA OVC035
     FM150300 19008KT 6SM SHRA OVC017=

USA.gov is the U.S. government's official web portal to all federal, state and local government web resources and services.